sensor_id;sensor_type;location;lat;lon;timestamp;pressure;altitude;pressure_sealevel;temperature
22828;BMP180;11580;52.562;13.418;2023-02-21T00:02:41;100231.00;;;13.60
22828;BMP180;11580;52.562;13.418;2023-02-21T00:05:25;100239.00;;;13.60
22828;BMP180;11580;52.562;13.418;2023-02-21T00:08:10;100226.00;;;13.60
22828;BMP180;11580;52.562;13.418;2023-02-21T00:10:54;100224.00;;;13.60
22828;BMP180;11580;52.562;13.418;2023-02-21T00:13:39;100225.00;;;13.60
22828;BMP180;11580;52.562;13.418;2023-02-21T00:16:25;100219.00;;;13.60
22828;BMP180;11580;52.562;13.418;2023-02-21T00:19:10;100220.00;;;13.60
22828;BMP180;11580;52.562;13.418;2023-02-21T00:21:54;100218.00;;;13.60
22828;BMP180;11580;52.562;13.418;2023-02-21T00:24:39;100213.00;;;13.50
22828;BMP180;11580;52.562;13.418;2023-02-21T00:27:24;100208.00;;;13.50
22828;BMP180;11580;52.562;13.418;2023-02-21T00:30:10;100210.00;;;13.50
22828;BMP180;11580;52.562;13.418;2023-02-21T00:32:58;100209.00;;;13.50
22828;BMP180;11580;52.562;13.418;2023-02-21T00:35:42;100205.00;;;13.50
22828;BMP180;11580;52.562;13.418;2023-02-21T00:38:27;100195.00;;;13.50
22828;BMP180;11580;52.562;13.418;2023-02-21T00:41:11;100202.00;;;13.50
22828;BMP180;11580;52.562;13.418;2023-02-21T00:43:56;100204.00;;;13.50
22828;BMP180;11580;52.562;13.418;2023-02-21T00:46:41;100194.00;;;13.50
22828;BMP180;11580;52.562;13.418;2023-02-21T00:49:27;100200.00;;;13.50
22828;BMP180;11580;52.562;13.418;2023-02-21T00:52:12;100205.00;;;13.50
22828;BMP180;11580;52.562;13.418;2023-02-21T00:54:56;100200.00;;;13.50
22828;BMP180;11580;52.562;13.418;2023-02-21T00:57:41;100192.00;;;13.50
22828;BMP180;11580;52.562;13.418;2023-02-21T01:00:26;100183.00;;;13.50
22828;BMP180;11580;52.562;13.418;2023-02-21T01:03:11;100178.00;;;13.50
22828;BMP180;11580;52.562;13.418;2023-02-21T01:05:57;100178.00;;;13.50
22828;BMP180;11580;52.562;13.418;2023-02-21T01:08:44;100181.00;;;13.50
22828;BMP180;11580;52.562;13.418;2023-02-21T01:11:29;100176.00;;;13.50
22828;BMP180;11580;52.562;13.418;2023-02-21T01:14:14;100169.00;;;13.50
22828;BMP180;11580;52.562;13.418;2023-02-21T01:16:59;100167.00;;;13.50
22828;BMP180;11580;52.562;13.418;2023-02-21T01:19:44;100175.00;;;13.50
22828;BMP180;11580;52.562;13.418;2023-02-21T01:22:30;100156.00;;;13.50
22828;BMP180;11580;52.562;13.418;2023-02-21T01:25:15;100152.00;;;13.50
22828;BMP180;11580;52.562;13.418;2023-02-21T01:27:59;100152.00;;;13.50
22828;BMP180;11580;52.562;13.418;2023-02-21T01:30:44;100122.00;;;13.50
22828;BMP180;11580;52.562;13.418;2023-02-21T01:33:36;100162.00;;;13.50
22828;BMP180;11580;52.562;13.418;2023-02-21T01:36:21;100151.00;;;13.50
22828;BMP180;11580;52.562;13.418;2023-02-21T01:39:07;100122.00;;;13.50
22828;BMP180;11580;52.562;13.418;2023-02-21T01:41:52;100149.00;;;13.50
22828;BMP180;11580;52.562;13.418;2023-02-21T01:44:40;100137.00;;;13.50
22828;BMP180;11580;52.562;13.418;2023-02-21T01:47:25;100153.00;;;13.50
22828;BMP180;11580;52.562;13.418;2023-02-21T01:50:18;100155.00;;;13.60
22828;BMP180;11580;52.562;13.418;2023-02-21T01:53:08;100150.00;;;13.60
22828;BMP180;11580;52.562;13.418;2023-02-21T01:55:56;100142.00;;;13.60
22828;BMP180;11580;52.562;13.418;2023-02-21T01:58:43;100147.00;;;13.60
22828;BMP180;11580;52.562;13.418;2023-02-21T02:01:38;100130.00;;;13.60
22828;BMP180;11580;52.562;13.418;2023-02-21T02:04:24;100144.00;;;13.60
22828;BMP180;11580;52.562;13.418;2023-02-21T02:07:09;100154.00;;;13.60
22828;BMP180;11580;52.562;13.418;2023-02-21T02:09:54;100153.00;;;13.60
22828;BMP180;11580;52.562;13.418;2023-02-21T02:13:19;100141.00;;;13.70
22828;BMP180;11580;52.562;13.418;2023-02-21T02:15:59;100151.00;;;13.70
22828;BMP180;11580;52.562;13.418;2023-02-21T02:18:53;100145.00;;;13.70
22828;BMP180;11580;52.562;13.418;2023-02-21T02:25:25;100145.00;;;13.70
22828;BMP180;11580;52.562;13.418;2023-02-21T02:28:22;100134.00;;;13.70
22828;BMP180;11580;52.562;13.418;2023-02-21T02:31:20;100137.00;;;13.80
22828;BMP180;11580;52.562;13.418;2023-02-21T02:34:36;100134.00;;;13.70
22828;BMP180;11580;52.562;13.418;2023-02-21T02:37:15;100131.00;;;13.70
22828;BMP180;11580;52.562;13.418;2023-02-21T02:39:52;100127.00;;;13.80
22828;BMP180;11580;52.562;13.418;2023-02-21T02:42:36;100120.00;;;13.80
22828;BMP180;11580;52.562;13.418;2023-02-21T02:45:13;100122.00;;;13.80
22828;BMP180;11580;52.562;13.418;2023-02-21T02:47:44;100129.00;;;13.80
22828;BMP180;11580;52.562;13.418;2023-02-21T02:50:16;100128.00;;;13.80
22828;BMP180;11580;52.562;13.418;2023-02-21T02:52:50;100114.00;;;13.90
22828;BMP180;11580;52.562;13.418;2023-02-21T02:55:36;100129.00;;;13.90
22828;BMP180;11580;52.562;13.418;2023-02-21T02:58:08;100131.00;;;13.90
22828;BMP180;11580;52.562;13.418;2023-02-21T03:00:44;100115.00;;;13.70
22828;BMP180;11580;52.562;13.418;2023-02-21T03:03:38;100122.00;;;13.90
22828;BMP180;11580;52.562;13.418;2023-02-21T03:06:23;100126.00;;;13.90
22828;BMP180;11580;52.562;13.418;2023-02-21T03:09:02;100121.00;;;13.90
22828;BMP180;11580;52.562;13.418;2023-02-21T03:11:42;100125.00;;;13.90
22828;BMP180;11580;52.562;13.418;2023-02-21T03:14:16;100122.00;;;13.90
22828;BMP180;11580;52.562;13.418;2023-02-21T03:16:53;100113.00;;;13.90
22828;BMP180;11580;52.562;13.418;2023-02-21T03:19:26;100123.00;;;14.00
22828;BMP180;11580;52.562;13.418;2023-02-21T03:22:02;100127.00;;;14.00
22828;BMP180;11580;52.562;13.418;2023-02-21T03:24:33;100124.00;;;14.00
22828;BMP180;11580;52.562;13.418;2023-02-21T03:27:05;100128.00;;;14.00
22828;BMP180;11580;52.562;13.418;2023-02-21T03:29:59;100127.00;;;14.10
22828;BMP180;11580;52.562;13.418;2023-02-21T03:32:32;100130.00;;;14.10
22828;BMP180;11580;52.562;13.418;2023-02-21T03:35:02;100129.00;;;14.10
22828;BMP180;11580;52.562;13.418;2023-02-21T03:37:36;100132.00;;;14.10
22828;BMP180;11580;52.562;13.418;2023-02-21T03:40:06;100119.00;;;14.10
22828;BMP180;11580;52.562;13.418;2023-02-21T03:42:34;100130.00;;;14.00
22828;BMP180;11580;52.562;13.418;2023-02-21T03:45:01;100129.00;;;14.10
22828;BMP180;11580;52.562;13.418;2023-02-21T03:47:29;100133.00;;;14.10
22828;BMP180;11580;52.562;13.418;2023-02-21T03:49:57;100144.00;;;14.10
22828;BMP180;11580;52.562;13.418;2023-02-21T03:52:24;100132.00;;;14.10
22828;BMP180;11580;52.562;13.418;2023-02-21T03:54:53;100137.00;;;14.20
22828;BMP180;11580;52.562;13.418;2023-02-21T03:57:21;100132.00;;;14.10
22828;BMP180;11580;52.562;13.418;2023-02-21T03:59:49;100150.00;;;14.20
22828;BMP180;11580;52.562;13.418;2023-02-21T04:02:17;100146.00;;;14.10
22828;BMP180;11580;52.562;13.418;2023-02-21T04:04:45;100144.00;;;14.10
22828;BMP180;11580;52.562;13.418;2023-02-21T04:07:17;100151.00;;;14.20
22828;BMP180;11580;52.562;13.418;2023-02-21T04:09:46;100161.00;;;14.10
22828;BMP180;11580;52.562;13.418;2023-02-21T04:12:20;100152.00;;;14.20
22828;BMP180;11580;52.562;13.418;2023-02-21T04:14:48;100139.00;;;14.20
22828;BMP180;11580;52.562;13.418;2023-02-21T04:17:17;100155.00;;;14.20
22828;BMP180;11580;52.562;13.418;2023-02-21T04:19:45;100152.00;;;14.20
22828;BMP180;11580;52.562;13.418;2023-02-21T04:22:12;100170.00;;;14.20
22828;BMP180;11580;52.562;13.418;2023-02-21T04:24:39;100163.00;;;14.20
22828;BMP180;11580;52.562;13.418;2023-02-21T04:27:07;100165.00;;;14.30
22828;BMP180;11580;52.562;13.418;2023-02-21T04:29:40;100168.00;;;14.30
22828;BMP180;11580;52.562;13.418;2023-02-21T04:32:09;100174.00;;;14.20
22828;BMP180;11580;52.562;13.418;2023-02-21T04:34:37;100171.00;;;14.30
22828;BMP180;11580;52.562;13.418;2023-02-21T04:37:04;100179.00;;;14.30
22828;BMP180;11580;52.562;13.418;2023-02-21T04:39:31;100162.00;;;14.30
22828;BMP180;11580;52.562;13.418;2023-02-21T04:41:59;100173.00;;;14.30
22828;BMP180;11580;52.562;13.418;2023-02-21T04:44:26;100172.00;;;14.30
22828;BMP180;11580;52.562;13.418;2023-02-21T04:46:54;100173.00;;;14.30
22828;BMP180;11580;52.562;13.418;2023-02-21T04:49:22;100169.00;;;14.30
22828;BMP180;11580;52.562;13.418;2023-02-21T04:51:50;100167.00;;;14.30
22828;BMP180;11580;52.562;13.418;2023-02-21T04:54:18;100169.00;;;14.30
22828;BMP180;11580;52.562;13.418;2023-02-21T04:56:45;100175.00;;;14.30
22828;BMP180;11580;52.562;13.418;2023-02-21T04:59:13;100183.00;;;14.30
22828;BMP180;11580;52.562;13.418;2023-02-21T05:01:40;100177.00;;;14.30
22828;BMP180;11580;52.562;13.418;2023-02-21T05:04:08;100176.00;;;14.30
22828;BMP180;11580;52.562;13.418;2023-02-21T05:06:35;100177.00;;;14.20
22828;BMP180;11580;52.562;13.418;2023-02-21T05:09:03;100180.00;;;14.20
22828;BMP180;11580;52.562;13.418;2023-02-21T05:11:33;100172.00;;;14.20
22828;BMP180;11580;52.562;13.418;2023-02-21T05:14:00;100177.00;;;14.20
22828;BMP180;11580;52.562;13.418;2023-02-21T05:16:28;100181.00;;;14.10
22828;BMP180;11580;52.562;13.418;2023-02-21T05:18:55;100176.00;;;14.10
22828;BMP180;11580;52.562;13.418;2023-02-21T05:21:23;100165.00;;;14.10
22828;BMP180;11580;52.562;13.418;2023-02-21T05:23:51;100176.00;;;14.00
22828;BMP180;11580;52.562;13.418;2023-02-21T05:26:26;100173.00;;;14.00
22828;BMP180;11580;52.562;13.418;2023-02-21T05:28:55;100170.00;;;14.00
22828;BMP180;11580;52.562;13.418;2023-02-21T05:31:23;100168.00;;;13.90
22828;BMP180;11580;52.562;13.418;2023-02-21T05:33:50;100184.00;;;13.90
22828;BMP180;11580;52.562;13.418;2023-02-21T05:36:17;100184.00;;;13.90
22828;BMP180;11580;52.562;13.418;2023-02-21T05:38:48;100178.00;;;13.90
22828;BMP180;11580;52.562;13.418;2023-02-21T05:41:17;100181.00;;;13.90
22828;BMP180;11580;52.562;13.418;2023-02-21T05:43:46;100184.00;;;13.90
22828;BMP180;11580;52.562;13.418;2023-02-21T05:46:20;100191.00;;;13.80
22828;BMP180;11580;52.562;13.418;2023-02-21T05:48:48;100185.00;;;13.80
22828;BMP180;11580;52.562;13.418;2023-02-21T05:51:16;100202.00;;;13.80
22828;BMP180;11580;52.562;13.418;2023-02-21T05:53:45;100191.00;;;13.80
22828;BMP180;11580;52.562;13.418;2023-02-21T05:56:14;100186.00;;;13.80
22828;BMP180;11580;52.562;13.418;2023-02-21T05:58:42;100196.00;;;13.90
22828;BMP180;11580;52.562;13.418;2023-02-21T06:01:09;100203.00;;;13.80
22828;BMP180;11580;52.562;13.418;2023-02-21T06:03:36;100208.00;;;13.80
22828;BMP180;11580;52.562;13.418;2023-02-21T06:06:04;100216.00;;;13.80
22828;BMP180;11580;52.562;13.418;2023-02-21T06:08:31;100219.00;;;13.80
22828;BMP180;11580;52.562;13.418;2023-02-21T06:11:00;100223.00;;;13.80
22828;BMP180;11580;52.562;13.418;2023-02-21T06:13:27;100234.00;;;13.80
22828;BMP180;11580;52.562;13.418;2023-02-21T06:15:54;100226.00;;;13.80
22828;BMP180;11580;52.562;13.418;2023-02-21T06:18:21;100236.00;;;13.90
22828;BMP180;11580;52.562;13.418;2023-02-21T06:20:48;100204.00;;;13.90
22828;BMP180;11580;52.562;13.418;2023-02-21T06:23:16;100240.00;;;13.90
22828;BMP180;11580;52.562;13.418;2023-02-21T06:25:43;100249.00;;;13.90
22828;BMP180;11580;52.562;13.418;2023-02-21T06:28:11;100261.00;;;13.90
22828;BMP180;11580;52.562;13.418;2023-02-21T06:30:39;100248.00;;;13.90
22828;BMP180;11580;52.562;13.418;2023-02-21T06:33:06;100254.00;;;13.90
22828;BMP180;11580;52.562;13.418;2023-02-21T06:35:33;100262.00;;;13.90
22828;BMP180;11580;52.562;13.418;2023-02-21T06:38:00;100267.00;;;13.90
22828;BMP180;11580;52.562;13.418;2023-02-21T06:40:27;100259.00;;;13.90
22828;BMP180;11580;52.562;13.418;2023-02-21T06:42:54;100263.00;;;13.90
22828;BMP180;11580;52.562;13.418;2023-02-21T06:45:23;100261.00;;;13.90
22828;BMP180;11580;52.562;13.418;2023-02-21T06:47:50;100264.00;;;13.90
22828;BMP180;11580;52.562;13.418;2023-02-21T06:50:17;100272.00;;;13.90
22828;BMP180;11580;52.562;13.418;2023-02-21T06:52:44;100279.00;;;13.90
22828;BMP180;11580;52.562;13.418;2023-02-21T06:55:12;100281.00;;;13.90
22828;BMP180;11580;52.562;13.418;2023-02-21T06:57:39;100288.00;;;14.00
22828;BMP180;11580;52.562;13.418;2023-02-21T07:00:08;100291.00;;;13.90
22828;BMP180;11580;52.562;13.418;2023-02-21T07:02:36;100309.00;;;14.00
22828;BMP180;11580;52.562;13.418;2023-02-21T07:05:06;100292.00;;;14.00
22828;BMP180;11580;52.562;13.418;2023-02-21T07:07:33;100307.00;;;14.00
22828;BMP180;11580;52.562;13.418;2023-02-21T07:10:00;100310.00;;;14.00
22828;BMP180;11580;52.562;13.418;2023-02-21T07:12:27;100310.00;;;13.90
22828;BMP180;11580;52.562;13.418;2023-02-21T07:14:55;100317.00;;;14.10
22828;BMP180;11580;52.562;13.418;2023-02-21T07:17:22;100318.00;;;14.10
22828;BMP180;11580;52.562;13.418;2023-02-21T07:19:50;100319.00;;;14.20
22828;BMP180;11580;52.562;13.418;2023-02-21T07:22:17;100335.00;;;14.20
22828;BMP180;11580;52.562;13.418;2023-02-21T07:24:51;100321.00;;;14.20
22828;BMP180;11580;52.562;13.418;2023-02-21T07:27:19;100326.00;;;14.30
22828;BMP180;11580;52.562;13.418;2023-02-21T07:29:47;100345.00;;;14.30
22828;BMP180;11580;52.562;13.418;2023-02-21T07:32:16;100359.00;;;14.30
22828;BMP180;11580;52.562;13.418;2023-02-21T07:34:43;100348.00;;;14.40
22828;BMP180;11580;52.562;13.418;2023-02-21T07:37:12;100347.00;;;14.40
22828;BMP180;11580;52.562;13.418;2023-02-21T07:39:39;100343.00;;;14.40
22828;BMP180;11580;52.562;13.418;2023-02-21T07:42:07;100348.00;;;14.50
22828;BMP180;11580;52.562;13.418;2023-02-21T07:44:34;100345.00;;;14.50
22828;BMP180;11580;52.562;13.418;2023-02-21T07:47:01;100346.00;;;14.50
22828;BMP180;11580;52.562;13.418;2023-02-21T07:49:28;100342.00;;;14.60
22828;BMP180;11580;52.562;13.418;2023-02-21T07:51:56;100347.00;;;14.60
22828;BMP180;11580;52.562;13.418;2023-02-21T07:54:24;100354.00;;;14.60
22828;BMP180;11580;52.562;13.418;2023-02-21T07:56:52;100354.00;;;14.60
22828;BMP180;11580;52.562;13.418;2023-02-21T07:59:20;100355.00;;;14.70
22828;BMP180;11580;52.562;13.418;2023-02-21T08:01:47;100361.00;;;14.70
22828;BMP180;11580;52.562;13.418;2023-02-21T08:04:14;100360.00;;;14.80
22828;BMP180;11580;52.562;13.418;2023-02-21T08:06:45;100371.00;;;14.70
22828;BMP180;11580;52.562;13.418;2023-02-21T08:09:14;100378.00;;;14.70
22828;BMP180;11580;52.562;13.418;2023-02-21T08:11:42;100379.00;;;14.80
22828;BMP180;11580;52.562;13.418;2023-02-21T08:14:09;100383.00;;;14.80
22828;BMP180;11580;52.562;13.418;2023-02-21T08:16:37;100383.00;;;14.80
22828;BMP180;11580;52.562;13.418;2023-02-21T08:19:04;100378.00;;;14.90
22828;BMP180;11580;52.562;13.418;2023-02-21T08:21:32;100382.00;;;14.90
22828;BMP180;11580;52.562;13.418;2023-02-21T08:24:00;100378.00;;;14.90
22828;BMP180;11580;52.562;13.418;2023-02-21T08:26:27;100391.00;;;15.00
22828;BMP180;11580;52.562;13.418;2023-02-21T08:28:55;100381.00;;;15.10
22828;BMP180;11580;52.562;13.418;2023-02-21T08:31:23;100398.00;;;15.10
22828;BMP180;11580;52.562;13.418;2023-02-21T08:33:51;100394.00;;;15.10
22828;BMP180;11580;52.562;13.418;2023-02-21T08:36:18;100398.00;;;15.10
22828;BMP180;11580;52.562;13.418;2023-02-21T08:38:46;100406.00;;;15.00
22828;BMP180;11580;52.562;13.418;2023-02-21T08:41:13;100400.00;;;15.00
22828;BMP180;11580;52.562;13.418;2023-02-21T08:43:40;100402.00;;;15.00
22828;BMP180;11580;52.562;13.418;2023-02-21T08:46:09;100404.00;;;15.00
22828;BMP180;11580;52.562;13.418;2023-02-21T08:48:36;100414.00;;;14.90
22828;BMP180;11580;52.562;13.418;2023-02-21T08:51:04;100419.00;;;15.00
22828;BMP180;11580;52.562;13.418;2023-02-21T08:53:31;100411.00;;;15.00
22828;BMP180;11580;52.562;13.418;2023-02-21T08:55:58;100434.00;;;15.00
22828;BMP180;11580;52.562;13.418;2023-02-21T08:58:25;100415.00;;;15.10
22828;BMP180;11580;52.562;13.418;2023-02-21T09:00:52;100406.00;;;15.10
22828;BMP180;11580;52.562;13.418;2023-02-21T09:03:21;100422.00;;;15.10
22828;BMP180;11580;52.562;13.418;2023-02-21T09:05:48;100418.00;;;15.10
22828;BMP180;11580;52.562;13.418;2023-02-21T09:08:15;100426.00;;;15.10
22828;BMP180;11580;52.562;13.418;2023-02-21T09:10:45;100431.00;;;15.10
22828;BMP180;11580;52.562;13.418;2023-02-21T09:13:14;100420.00;;;15.20
22828;BMP180;11580;52.562;13.418;2023-02-21T09:15:41;100418.00;;;15.20
22828;BMP180;11580;52.562;13.418;2023-02-21T09:18:08;100417.00;;;15.30
22828;BMP180;11580;52.562;13.418;2023-02-21T09:20:37;100430.00;;;15.30
22828;BMP180;11580;52.562;13.418;2023-02-21T09:23:07;100425.00;;;15.30
22828;BMP180;11580;52.562;13.418;2023-02-21T09:25:34;100427.00;;;15.40
22828;BMP180;11580;52.562;13.418;2023-02-21T09:28:01;100439.00;;;15.40
22828;BMP180;11580;52.562;13.418;2023-02-21T09:30:28;100437.00;;;15.40
22828;BMP180;11580;52.562;13.418;2023-02-21T09:32:56;100437.00;;;15.40
22828;BMP180;11580;52.562;13.418;2023-02-21T09:35:23;100436.00;;;15.50
22828;BMP180;11580;52.562;13.418;2023-02-21T09:37:52;100450.00;;;15.40
22828;BMP180;11580;52.562;13.418;2023-02-21T09:40:34;100447.00;;;15.40
22828;BMP180;11580;52.562;13.418;2023-02-21T09:43:07;100458.00;;;15.40
22828;BMP180;11580;52.562;13.418;2023-02-21T09:45:40;100452.00;;;15.40
22828;BMP180;11580;52.562;13.418;2023-02-21T09:48:13;100450.00;;;15.40
22828;BMP180;11580;52.562;13.418;2023-02-21T09:50:46;100451.00;;;15.40
22828;BMP180;11580;52.562;13.418;2023-02-21T09:53:21;100446.00;;;15.40
22828;BMP180;11580;52.562;13.418;2023-02-21T09:55:53;100464.00;;;15.40
22828;BMP180;11580;52.562;13.418;2023-02-21T09:58:21;100481.00;;;15.40
22828;BMP180;11580;52.562;13.418;2023-02-21T10:00:49;100459.00;;;15.40
22828;BMP180;11580;52.562;13.418;2023-02-21T10:03:51;100469.00;;;15.30
22828;BMP180;11580;52.562;13.418;2023-02-21T10:06:31;100471.00;;;15.30
22828;BMP180;11580;52.562;13.418;2023-02-21T10:09:07;100467.00;;;15.30
22828;BMP180;11580;52.562;13.418;2023-02-21T10:11:56;100466.00;;;15.30
22828;BMP180;11580;52.562;13.418;2023-02-21T10:14:36;100473.00;;;15.40
22828;BMP180;11580;52.562;13.418;2023-02-21T10:17:18;100468.00;;;15.40
22828;BMP180;11580;52.562;13.418;2023-02-21T10:19:52;100490.00;;;15.40
22828;BMP180;11580;52.562;13.418;2023-02-21T10:22:26;100482.00;;;15.40
22828;BMP180;11580;52.562;13.418;2023-02-21T10:24:56;100476.00;;;15.40
22828;BMP180;11580;52.562;13.418;2023-02-21T10:27:29;100474.00;;;15.40
22828;BMP180;11580;52.562;13.418;2023-02-21T10:30:02;100491.00;;;15.40
22828;BMP180;11580;52.562;13.418;2023-02-21T10:32:31;100496.00;;;15.50
22828;BMP180;11580;52.562;13.418;2023-02-21T10:34:59;100486.00;;;15.40
22828;BMP180;11580;52.562;13.418;2023-02-21T10:37:35;100484.00;;;15.60
22828;BMP180;11580;52.562;13.418;2023-02-21T10:40:26;100491.00;;;15.60
22828;BMP180;11580;52.562;13.418;2023-02-21T10:43:02;100509.00;;;15.70
22828;BMP180;11580;52.562;13.418;2023-02-21T10:45:35;100484.00;;;15.80
22828;BMP180;11580;52.562;13.418;2023-02-21T10:48:06;100515.00;;;15.80
22828;BMP180;11580;52.562;13.418;2023-02-21T10:50:48;100498.00;;;15.80
22828;BMP180;11580;52.562;13.418;2023-02-21T10:53:28;100497.00;;;15.90
22828;BMP180;11580;52.562;13.418;2023-02-21T10:56:19;100494.00;;;16.00
22828;BMP180;11580;52.562;13.418;2023-02-21T10:58:48;100510.00;;;16.10
22828;BMP180;11580;52.562;13.418;2023-02-21T11:01:18;100510.00;;;16.10
22828;BMP180;11580;52.562;13.418;2023-02-21T11:03:50;100509.00;;;16.20
22828;BMP180;11580;52.562;13.418;2023-02-21T11:06:26;100503.00;;;16.20
22828;BMP180;11580;52.562;13.418;2023-02-21T11:08:54;100504.00;;;16.10
22828;BMP180;11580;52.562;13.418;2023-02-21T11:11:34;100502.00;;;16.10
22828;BMP180;11580;52.562;13.418;2023-02-21T11:14:24;100507.00;;;16.00
22828;BMP180;11580;52.562;13.418;2023-02-21T11:17:13;100510.00;;;16.00
22828;BMP180;11580;52.562;13.418;2023-02-21T11:19:45;100501.00;;;16.00
22828;BMP180;11580;52.562;13.418;2023-02-21T11:22:14;100489.00;;;15.90
22828;BMP180;11580;52.562;13.418;2023-02-21T11:25:02;100505.00;;;15.70
22828;BMP180;11580;52.562;13.418;2023-02-21T11:27:34;100502.00;;;15.60
22828;BMP180;11580;52.562;13.418;2023-02-21T11:30:14;100497.00;;;15.60
22828;BMP180;11580;52.562;13.418;2023-02-21T11:32:47;100512.00;;;15.60
22828;BMP180;11580;52.562;13.418;2023-02-21T11:35:25;100501.00;;;15.50
22828;BMP180;11580;52.562;13.418;2023-02-21T11:37:57;100496.00;;;15.30
22828;BMP180;11580;52.562;13.418;2023-02-21T11:40:33;100493.00;;;15.30
22828;BMP180;11580;52.562;13.418;2023-02-21T11:43:29;100484.00;;;15.20
22828;BMP180;11580;52.562;13.418;2023-02-21T11:46:18;100489.00;;;15.10
22828;BMP180;11580;52.562;13.418;2023-02-21T11:48:57;100487.00;;;15.10
22828;BMP180;11580;52.562;13.418;2023-02-21T11:51:37;100497.00;;;15.00
22828;BMP180;11580;52.562;13.418;2023-02-21T11:54:05;100503.00;;;15.00
22828;BMP180;11580;52.562;13.418;2023-02-21T11:56:48;100503.00;;;14.90
22828;BMP180;11580;52.562;13.418;2023-02-21T11:59:31;100497.00;;;15.00
22828;BMP180;11580;52.562;13.418;2023-02-21T12:02:26;100493.00;;;14.90
22828;BMP180;11580;52.562;13.418;2023-02-21T12:05:12;100499.00;;;15.00
22828;BMP180;11580;52.562;13.418;2023-02-21T12:07:51;100484.00;;;14.90
22828;BMP180;11580;52.562;13.418;2023-02-21T12:10:41;100507.00;;;15.00
22828;BMP180;11580;52.562;13.418;2023-02-21T12:13:25;100512.00;;;15.00
22828;BMP180;11580;52.562;13.418;2023-02-21T12:16:09;100506.00;;;15.10
22828;BMP180;11580;52.562;13.418;2023-02-21T12:18:54;100510.00;;;15.00
22828;BMP180;11580;52.562;13.418;2023-02-21T12:21:58;100517.00;;;15.00
22828;BMP180;11580;52.562;13.418;2023-02-21T12:24:51;100522.00;;;15.10
22828;BMP180;11580;52.562;13.418;2023-02-21T12:27:33;100523.00;;;15.10
22828;BMP180;11580;52.562;13.418;2023-02-21T12:30:26;100508.00;;;15.10
22828;BMP180;11580;52.562;13.418;2023-02-21T12:33:11;100516.00;;;15.00
22828;BMP180;11580;52.562;13.418;2023-02-21T12:39:06;100525.00;;;14.90
22828;BMP180;11580;52.562;13.418;2023-02-21T12:42:07;100515.00;;;15.00
22828;BMP180;11580;52.562;13.418;2023-02-21T12:44:49;100524.00;;;15.00
22828;BMP180;11580;52.562;13.418;2023-02-21T12:47:27;100493.00;;;15.00
22828;BMP180;11580;52.562;13.418;2023-02-21T12:50:03;100510.00;;;15.00
22828;BMP180;11580;52.562;13.418;2023-02-21T12:52:37;100501.00;;;15.10
22828;BMP180;11580;52.562;13.418;2023-02-21T12:55:21;100540.00;;;15.10
22828;BMP180;11580;52.562;13.418;2023-02-21T12:57:57;100519.00;;;15.10
22828;BMP180;11580;52.562;13.418;2023-02-21T13:00:31;100518.00;;;15.10
22828;BMP180;11580;52.562;13.418;2023-02-21T13:03:21;100493.00;;;15.10
22828;BMP180;11580;52.562;13.418;2023-02-21T13:05:57;100499.00;;;15.10
22828;BMP180;11580;52.562;13.418;2023-02-21T13:08:32;100498.00;;;15.10
22828;BMP180;11580;52.562;13.418;2023-02-21T13:11:10;100490.00;;;15.20
22828;BMP180;11580;52.562;13.418;2023-02-21T13:13:38;100499.00;;;15.10
22828;BMP180;11580;52.562;13.418;2023-02-21T13:16:08;100487.00;;;15.20
22828;BMP180;11580;52.562;13.418;2023-02-21T13:18:45;100496.00;;;15.20
22828;BMP180;11580;52.562;13.418;2023-02-21T13:21:28;100489.00;;;15.20
22828;BMP180;11580;52.562;13.418;2023-02-21T13:24:47;100495.00;;;15.10
22828;BMP180;11580;52.562;13.418;2023-02-21T13:27:50;100492.00;;;15.10
22828;BMP180;11580;52.562;13.418;2023-02-21T13:30:26;100506.00;;;15.00
22828;BMP180;11580;52.562;13.418;2023-02-21T13:32:57;100511.00;;;14.90
22828;BMP180;11580;52.562;13.418;2023-02-21T13:35:31;100483.00;;;14.80
22828;BMP180;11580;52.562;13.418;2023-02-21T13:38:03;100516.00;;;14.90
22828;BMP180;11580;52.562;13.418;2023-02-21T13:40:37;100490.00;;;14.80
22828;BMP180;11580;52.562;13.418;2023-02-21T13:43:12;100501.00;;;14.90
22828;BMP180;11580;52.562;13.418;2023-02-21T13:45:42;100496.00;;;14.80
22828;BMP180;11580;52.562;13.418;2023-02-21T13:48:23;100495.00;;;14.90
22828;BMP180;11580;52.562;13.418;2023-02-21T13:50:54;100481.00;;;14.90
22828;BMP180;11580;52.562;13.418;2023-02-21T13:53:29;100501.00;;;14.90
22828;BMP180;11580;52.562;13.418;2023-02-21T13:56:18;100503.00;;;15.00
22828;BMP180;11580;52.562;13.418;2023-02-21T13:58:47;100499.00;;;15.00
22828;BMP180;11580;52.562;13.418;2023-02-21T14:01:50;100501.00;;;15.10
22828;BMP180;11580;52.562;13.418;2023-02-21T14:05:04;100509.00;;;15.10
22828;BMP180;11580;52.562;13.418;2023-02-21T14:07:47;100495.00;;;15.10
22828;BMP180;11580;52.562;13.418;2023-02-21T14:10:31;100501.00;;;15.00
22828;BMP180;11580;52.562;13.418;2023-02-21T14:13:04;100496.00;;;15.00
22828;BMP180;11580;52.562;13.418;2023-02-21T14:15:41;100499.00;;;15.00
22828;BMP180;11580;52.562;13.418;2023-02-21T14:18:20;100501.00;;;15.00
22828;BMP180;11580;52.562;13.418;2023-02-21T14:20:52;100496.00;;;14.90
22828;BMP180;11580;52.562;13.418;2023-02-21T14:23:34;100499.00;;;14.80
22828;BMP180;11580;52.562;13.418;2023-02-21T14:26:05;100503.00;;;14.80
22828;BMP180;11580;52.562;13.418;2023-02-21T14:29:02;100503.00;;;14.80
22828;BMP180;11580;52.562;13.418;2023-02-21T14:31:52;100524.00;;;14.70
22828;BMP180;11580;52.562;13.418;2023-02-21T14:34:29;100511.00;;;14.70
22828;BMP180;11580;52.562;13.418;2023-02-21T14:37:02;100513.00;;;14.70
22828;BMP180;11580;52.562;13.418;2023-02-21T14:39:35;100511.00;;;14.80